EFMA/MHQ METAR and TAF weather

Enter ICAO airport designator
Station Type Date Time Source
EFMA METAR 2019/10/18 07:20 UTC NOAA

EFMA 180720Z AUTO 14005KT 5000 -DZ OVC004 09/08 Q1010


Station Type Date Time Source
EFMA Decoded METAR 2019/10/18 07:20 UTC NOAA

Mariehamn / Aland Island, Finland (EFMA) 60-07N 019-54E
Oct 18, 2019 - 03:20 AM EDT / 2019.10.18 0720 UTC
Wind: from the SE (140 degrees) at 6 MPH (5 KT):0
Visibility: 3 mile(s):0
Sky conditions: overcast
Weather: light drizzle
Temperature: 48 F (9 C)
Dew Point: 46 F (8 C)
Relative Humidity: 93%
Pressure (altimeter): 29.83 in. Hg (1010 hPa)
ob: EFMA 180720Z AUTO 14005KT 5000 -DZ OVC004 09/08 Q1010
cycle: 7

Station Type Date Time Source
EFMA TAF 2014/05/01 21:18 UTC NOAA

TAF TAF EFMA 302037Z 3021/0106 08008KT CAVOK
TEMPO 3023/0101 02010KT 6000 RASN
BECMG 0101/0103 01012KT 4000 RASN BKN010 OVC025

Example: see airport list